createdAt,value
2018-07-05T00:02:45.585Z,21.00
2018-07-05T00:06:00.127Z,20.90
2018-07-05T00:09:14.808Z,20.80
2018-07-05T00:12:29.366Z,20.80
2018-07-05T00:15:44.082Z,20.80
2018-07-05T00:18:58.594Z,20.80
2018-07-05T00:22:13.081Z,20.80
2018-07-05T00:25:27.821Z,20.80
2018-07-05T00:28:42.353Z,20.80
2018-07-05T00:31:56.833Z,20.80
2018-07-05T00:35:11.221Z,20.60
2018-07-05T00:38:25.657Z,20.50
2018-07-05T00:41:40.197Z,20.40
2018-07-05T00:44:54.634Z,20.30
2018-07-05T00:48:09.434Z,20.30
2018-07-05T00:51:24.002Z,20.30
2018-07-05T00:54:38.668Z,20.30
2018-07-05T00:57:53.129Z,20.30
2018-07-05T01:01:07.785Z,20.30
2018-07-05T01:04:22.469Z,20.30
2018-07-05T01:07:37.097Z,20.40
2018-07-05T01:10:51.540Z,20.40
2018-07-05T01:14:07.144Z,20.50
2018-07-05T01:17:21.514Z,20.40
2018-07-05T01:20:36.189Z,20.50
2018-07-05T01:23:50.714Z,20.40
2018-07-05T01:27:05.342Z,20.50
2018-07-05T01:30:20.161Z,20.40
2018-07-05T01:33:34.733Z,20.30
2018-07-05T01:36:49.438Z,20.20
2018-07-05T01:40:03.856Z,20.00
2018-07-05T01:43:18.459Z,20.00
2018-07-05T01:49:41.380Z,19.80
2018-07-05T01:52:57.322Z,19.70
2018-07-05T01:56:11.868Z,19.70
2018-07-05T02:02:34.837Z,19.60
2018-07-05T02:05:49.401Z,19.60
2018-07-05T02:12:12.591Z,19.50
2018-07-05T02:15:27.309Z,19.40
2018-07-05T02:18:41.978Z,19.20
2018-07-05T02:21:56.496Z,19.20
2018-07-05T02:25:10.985Z,19.20
2018-07-05T02:28:25.417Z,19.20
2018-07-05T02:31:40.128Z,19.20
2018-07-05T02:34:54.726Z,19.10
2018-07-05T02:38:15.146Z,18.90
2018-07-05T02:41:29.773Z,18.90
2018-07-05T02:44:44.370Z,18.80
2018-07-05T02:47:58.970Z,18.80
2018-07-05T02:51:13.474Z,18.90
2018-07-05T02:54:28.089Z,18.90
2018-07-05T02:57:42.497Z,18.90
2018-07-05T03:00:57.186Z,19.00
2018-07-05T03:04:11.629Z,18.90
2018-07-05T03:07:26.205Z,18.90
2018-07-05T03:10:40.662Z,19.00
2018-07-05T03:13:55.169Z,19.00
2018-07-05T03:17:09.659Z,19.00
2018-07-05T03:20:24.276Z,19.00
2018-07-05T03:23:38.934Z,19.00
2018-07-05T03:26:53.492Z,19.00
2018-07-05T03:30:08.022Z,19.00
2018-07-05T03:33:22.693Z,19.00
2018-07-05T03:36:37.322Z,18.90
2018-07-05T03:39:52.034Z,18.90
2018-07-05T03:43:06.513Z,18.90
2018-07-05T03:49:29.784Z,18.90
2018-07-05T03:52:44.210Z,18.90
2018-07-05T03:55:58.768Z,19.00
2018-07-05T03:59:13.357Z,19.20
2018-07-05T04:02:27.945Z,19.20
2018-07-05T04:08:51.141Z,19.40
2018-07-05T04:15:14.434Z,19.40
2018-07-05T04:18:29.037Z,19.50
2018-07-05T04:21:43.535Z,19.50
2018-07-05T04:24:58.044Z,19.50
2018-07-05T04:28:12.553Z,19.70
2018-07-05T04:34:35.603Z,19.70
2018-07-05T04:37:50.225Z,19.80
2018-07-05T04:41:04.937Z,20.00
2018-07-05T04:44:19.602Z,20.20
2018-07-05T04:47:34.145Z,20.30
2018-07-05T04:50:48.629Z,20.30
2018-07-05T04:54:03.259Z,20.30
2018-07-05T04:57:17.884Z,20.60
2018-07-05T05:00:32.362Z,20.90
2018-07-05T05:03:46.905Z,21.10
2018-07-05T05:07:01.332Z,21.60
2018-07-05T05:10:15.799Z,21.90
2018-07-05T05:19:47.550Z,26.20
2018-07-05T05:23:01.985Z,27.80
2018-07-05T05:26:16.768Z,29.40
2018-07-05T05:29:31.430Z,30.80
2018-07-05T05:32:45.962Z,31.40
2018-07-05T05:36:00.577Z,32.10
2018-07-05T05:39:15.109Z,32.50
2018-07-05T05:42:29.656Z,33.10
2018-07-05T05:45:44.157Z,33.50
2018-07-05T05:48:58.444Z,33.50
2018-07-05T05:52:13.020Z,33.70
2018-07-05T05:55:27.790Z,33.70
2018-07-05T05:58:42.489Z,33.80
2018-07-05T06:01:56.973Z,34.10
2018-07-05T06:05:11.701Z,34.80
2018-07-05T06:08:26.468Z,35.80
2018-07-05T06:11:41.070Z,36.60
2018-07-05T06:14:55.746Z,36.90
2018-07-05T06:18:10.353Z,36.50
2018-07-05T06:21:25.029Z,36.20
2018-07-05T06:24:39.555Z,36.50
2018-07-05T06:27:54.169Z,36.80
2018-07-05T06:31:08.753Z,37.50
2018-07-05T06:34:23.306Z,37.80
2018-07-05T06:37:38.041Z,37.80
2018-07-05T06:40:52.701Z,37.80
2018-07-05T06:44:07.428Z,38.20
2018-07-05T06:47:21.925Z,39.00
2018-07-05T06:50:36.482Z,39.70
2018-07-05T06:53:51.229Z,40.20
2018-07-05T06:57:05.775Z,40.30
2018-07-05T07:00:20.970Z,40.10
2018-07-05T07:03:35.605Z,40.40
2018-07-05T07:06:50.344Z,40.60
2018-07-05T07:16:21.974Z,39.70
2018-07-05T07:19:36.570Z,39.50
2018-07-05T07:22:51.308Z,39.90
2018-07-05T07:26:05.866Z,40.20
2018-07-05T07:29:20.530Z,40.30
2018-07-05T07:32:34.990Z,39.50
2018-07-05T07:35:54.022Z,39.40
2018-07-05T07:39:08.693Z,38.90
2018-07-05T07:42:10.897Z,38.80
2018-07-05T07:45:13.054Z,38.60
2018-07-05T07:48:15.221Z,38.90
2018-07-05T07:51:17.454Z,39.20
2018-07-05T07:54:19.565Z,39.40
2018-07-05T07:57:21.725Z,39.70
2018-07-05T08:00:23.962Z,39.60
2018-07-05T08:06:28.565Z,39.10
2018-07-05T08:09:30.734Z,39.30
2018-07-05T08:12:32.905Z,39.50
2018-07-05T08:15:35.067Z,39.00
2018-07-05T08:18:37.249Z,38.90
2018-07-05T08:21:39.421Z,38.40
2018-07-05T08:24:41.569Z,37.70
2018-07-05T08:27:43.741Z,37.10
2018-07-05T08:30:45.924Z,37.00
2018-07-05T08:33:48.114Z,36.80
2018-07-05T08:36:50.273Z,36.90
2018-07-05T08:39:52.442Z,37.40
2018-07-05T08:42:54.613Z,37.20
2018-07-05T08:45:56.785Z,37.30
2018-07-05T08:48:58.958Z,37.40
2018-07-05T08:52:01.117Z,36.90
2018-07-05T08:55:03.282Z,36.60
2018-07-05T08:58:05.468Z,36.20
2018-07-05T09:01:07.645Z,35.80
2018-07-05T09:04:09.813Z,35.70
2018-07-05T09:07:12.002Z,35.50
2018-07-05T09:13:16.582Z,34.90
2018-07-05T09:16:18.739Z,34.60
2018-07-05T09:19:20.910Z,34.60
2018-07-05T09:22:23.069Z,34.40
2018-07-05T09:28:27.633Z,33.70
2018-07-05T09:31:29.784Z,33.80
2018-07-05T09:34:31.950Z,33.40
2018-07-05T09:40:36.521Z,32.70
2018-07-05T09:43:38.701Z,32.70
2018-07-05T09:46:40.838Z,32.50
2018-07-05T09:49:43.020Z,32.50
2018-07-05T09:52:45.226Z,32.40
2018-07-05T09:55:47.366Z,32.20
2018-07-05T09:58:49.540Z,31.80
2018-07-05T10:01:51.696Z,31.60
2018-07-05T10:04:53.871Z,31.50
2018-07-05T10:07:56.045Z,31.30
2018-07-05T10:10:58.225Z,31.30
2018-07-05T10:14:00.638Z,31.50
2018-07-05T10:17:02.790Z,31.50
2018-07-05T10:20:04.952Z,31.60
2018-07-05T10:23:07.116Z,31.60
2018-07-05T10:26:09.290Z,31.40
2018-07-05T10:29:23.897Z,31.40
2018-07-05T10:32:38.466Z,31.40
2018-07-05T10:38:43.277Z,31.30
2018-07-05T10:41:58.037Z,31.50
2018-07-05T10:45:12.497Z,31.60
2018-07-05T10:48:27.149Z,31.70
2018-07-05T10:51:46.213Z,31.40
2018-07-05T10:55:00.802Z,31.40
2018-07-05T10:58:15.361Z,31.70
2018-07-05T11:01:30.105Z,31.50
2018-07-05T11:04:44.778Z,31.00
2018-07-05T11:07:59.549Z,30.60
2018-07-05T11:11:14.348Z,30.50
2018-07-05T11:14:28.983Z,30.70
2018-07-05T11:17:43.732Z,30.70
2018-07-05T11:20:58.258Z,30.60
2018-07-05T11:24:12.849Z,30.60
2018-07-05T11:27:27.486Z,30.70
2018-07-05T11:30:41.937Z,30.70
2018-07-05T11:33:56.333Z,30.30
2018-07-05T11:37:11.081Z,30.10
2018-07-05T11:40:25.553Z,30.10
2018-07-05T11:43:40.095Z,30.40
2018-07-05T11:46:54.556Z,30.50
2018-07-05T11:50:08.989Z,30.10
2018-07-05T11:53:23.589Z,29.90
2018-07-05T11:56:38.113Z,29.80
2018-07-05T11:59:52.777Z,29.80
2018-07-05T12:03:07.365Z,29.50
2018-07-05T12:06:21.865Z,29.50
2018-07-05T12:12:44.889Z,29.60
2018-07-05T12:15:59.354Z,29.70
2018-07-05T12:19:14.237Z,29.80
2018-07-05T12:22:28.856Z,29.70
2018-07-05T12:25:43.557Z,29.70
2018-07-05T12:28:58.221Z,29.70
2018-07-05T12:32:12.822Z,29.70
2018-07-05T12:38:36.066Z,30.00
2018-07-05T12:41:50.741Z,29.90
2018-07-05T12:45:05.392Z,29.90
2018-07-05T12:48:20.164Z,30.00
2018-07-05T12:51:34.809Z,30.00
2018-07-05T12:54:49.297Z,30.00
2018-07-05T12:58:03.949Z,30.00
2018-07-05T13:01:18.629Z,30.10
2018-07-05T13:04:33.266Z,30.00
2018-07-05T13:07:47.894Z,29.90
2018-07-05T13:11:02.418Z,29.90
2018-07-05T13:17:25.561Z,29.10
2018-07-05T13:20:40.103Z,29.00
2018-07-05T13:23:54.894Z,28.80
2018-07-05T13:27:09.367Z,28.60
2018-07-05T13:30:24.093Z,28.30
2018-07-05T13:33:38.872Z,28.00
2018-07-05T13:36:53.432Z,27.70
2018-07-05T13:40:08.117Z,27.50
2018-07-05T13:43:22.821Z,27.50
2018-07-05T13:46:37.353Z,27.40
2018-07-05T13:53:00.438Z,27.40
2018-07-05T13:56:15.066Z,27.50
2018-07-05T13:59:29.597Z,27.70
2018-07-05T14:02:44.201Z,27.90
2018-07-05T14:05:58.717Z,28.00
2018-07-05T14:09:13.389Z,28.00
2018-07-05T14:15:56.411Z,28.00
2018-07-05T14:19:11.173Z,27.80
2018-07-05T14:22:25.800Z,27.70
2018-07-05T14:25:40.288Z,27.70
2018-07-05T14:28:54.909Z,27.80
2018-07-05T14:32:09.537Z,27.90
2018-07-05T14:35:24.073Z,27.90
2018-07-05T14:38:42.744Z,28.10
2018-07-05T14:41:57.459Z,28.30
2018-07-05T14:45:12.448Z,28.20
2018-07-05T14:48:27.605Z,28.30
2018-07-05T14:51:42.653Z,28.30
2018-07-05T14:54:57.230Z,28.20
2018-07-05T14:58:11.997Z,28.10
2018-07-05T15:01:26.761Z,27.90
2018-07-05T15:04:41.310Z,27.90
2018-07-05T15:07:55.781Z,28.00
2018-07-05T15:11:11.611Z,28.00
2018-07-05T15:14:26.098Z,28.00
2018-07-05T15:20:49.205Z,28.30
2018-07-05T15:24:03.673Z,28.20
2018-07-05T15:27:18.126Z,28.20
2018-07-05T15:30:32.901Z,28.10
2018-07-05T15:33:47.563Z,27.90
2018-07-05T15:37:02.103Z,28.00
2018-07-05T15:40:16.793Z,27.90
2018-07-05T15:43:31.315Z,27.80
2018-07-05T15:46:45.946Z,27.60
2018-07-05T15:50:00.465Z,27.50
2018-07-05T15:53:15.290Z,27.40
2018-07-05T15:56:29.982Z,27.50
2018-07-05T15:59:44.519Z,27.40
2018-07-05T16:02:59.234Z,27.30
2018-07-05T16:06:13.990Z,27.20
2018-07-05T16:09:28.678Z,27.10
2018-07-05T16:12:43.165Z,27.00
2018-07-05T16:19:06.296Z,26.90
2018-07-05T16:22:21.080Z,26.80
2018-07-05T16:25:35.595Z,26.80
2018-07-05T16:28:50.649Z,26.90
2018-07-05T16:32:05.449Z,26.90
2018-07-05T16:35:19.869Z,26.90
2018-07-05T16:38:34.560Z,26.80
2018-07-05T16:41:49.261Z,26.60
2018-07-05T16:45:03.711Z,26.50
2018-07-05T16:48:18.262Z,26.50
2018-07-05T16:51:32.872Z,26.40
2018-07-05T16:54:47.411Z,26.30
2018-07-05T16:58:01.969Z,26.20
2018-07-05T17:01:16.923Z,26.10
2018-07-05T17:04:31.589Z,26.00
2018-07-05T17:07:46.239Z,25.80
2018-07-05T17:11:01.026Z,25.80
2018-07-05T17:14:15.673Z,25.70
2018-07-05T17:17:30.318Z,25.70
2018-07-05T17:20:45.054Z,25.60
2018-07-05T17:23:59.722Z,25.60
2018-07-05T17:27:14.242Z,25.70
2018-07-05T17:30:28.850Z,25.80
2018-07-05T17:33:44.390Z,25.80
2018-07-05T17:36:58.989Z,25.80
2018-07-05T17:40:13.706Z,25.70
2018-07-05T17:43:28.216Z,25.60
2018-07-05T17:46:42.688Z,25.50
2018-07-05T17:49:57.344Z,25.50
2018-07-05T17:53:11.907Z,25.30
2018-07-05T17:56:26.657Z,25.30
2018-07-05T17:59:41.246Z,25.20
2018-07-05T18:02:55.655Z,25.20
2018-07-05T18:09:18.677Z,25.10
2018-07-05T18:12:33.290Z,25.10
2018-07-05T18:18:56.289Z,25.10
2018-07-05T18:22:11.365Z,25.10
2018-07-05T18:25:25.861Z,25.10
2018-07-05T18:28:40.325Z,25.10
2018-07-05T18:31:54.961Z,25.00
2018-07-05T18:35:09.594Z,25.00
2018-07-05T18:38:24.273Z,24.90
2018-07-05T18:41:38.773Z,24.80
2018-07-05T18:44:53.493Z,24.80
2018-07-05T18:48:08.189Z,24.70
2018-07-05T18:51:22.653Z,24.60
2018-07-05T18:54:37.304Z,24.50
2018-07-05T18:57:51.789Z,24.50
2018-07-05T19:01:06.402Z,24.40
2018-07-05T19:04:21.196Z,24.30
2018-07-05T19:07:35.770Z,24.20
2018-07-05T19:10:50.472Z,24.20
2018-07-05T19:14:05.065Z,24.10
2018-07-05T19:17:19.627Z,24.00
2018-07-05T19:20:34.308Z,24.00
2018-07-05T19:23:48.801Z,23.90
2018-07-05T19:30:12.074Z,23.80
2018-07-05T19:33:26.639Z,23.70
2018-07-05T19:36:41.234Z,23.60
2018-07-05T19:39:55.789Z,23.50
2018-07-05T19:43:10.453Z,23.40
2018-07-05T19:46:25.128Z,23.30
2018-07-05T19:49:39.757Z,23.20
2018-07-05T19:52:54.341Z,23.10
2018-07-05T19:56:09.005Z,23.10
2018-07-05T19:59:23.465Z,22.90
2018-07-05T20:02:38.097Z,22.80
2018-07-05T20:12:10.085Z,22.50
2018-07-05T20:15:24.590Z,22.40
2018-07-05T20:18:39.162Z,22.20
2018-07-05T20:21:53.817Z,22.10
2018-07-05T20:25:08.478Z,22.00
2018-07-05T20:28:23.257Z,21.90
2018-07-05T20:31:37.813Z,21.70
2018-07-05T20:34:52.371Z,21.60
2018-07-05T20:38:06.935Z,21.50
2018-07-05T20:41:21.472Z,21.30
2018-07-05T20:44:36.258Z,21.30
2018-07-05T20:47:50.925Z,21.10
2018-07-05T20:51:05.469Z,20.90
2018-07-05T20:54:20.170Z,20.80
2018-07-05T20:57:34.945Z,20.80
2018-07-05T21:00:49.466Z,20.70
2018-07-05T21:04:04.254Z,20.60
2018-07-05T21:07:18.832Z,20.60
2018-07-05T21:10:33.454Z,20.40
2018-07-05T21:13:48.030Z,20.30
2018-07-05T21:17:02.769Z,20.20
2018-07-05T21:20:17.257Z,20.10
2018-07-05T21:23:31.804Z,20.00
2018-07-05T21:26:46.256Z,20.00
2018-07-05T21:30:00.813Z,19.90
2018-07-05T21:33:15.422Z,19.80
2018-07-05T21:36:29.961Z,19.80
2018-07-05T21:39:44.633Z,19.70
2018-07-05T21:42:59.170Z,19.70
2018-07-05T21:46:13.805Z,19.60
2018-07-05T21:49:28.301Z,19.50
2018-07-05T21:52:42.798Z,19.40
2018-07-05T21:59:05.757Z,19.30
2018-07-05T22:02:20.158Z,19.20
2018-07-05T22:05:34.710Z,19.10
2018-07-05T22:08:49.468Z,19.10
2018-07-05T22:12:04.125Z,19.10
2018-07-05T22:18:32.980Z,18.90
2018-07-05T22:21:53.266Z,18.80
2018-07-05T22:25:13.516Z,18.80
2018-07-05T22:31:42.258Z,18.80
2018-07-05T22:34:56.897Z,18.70
2018-07-05T22:41:20.125Z,18.60
2018-07-05T22:44:34.683Z,18.60
2018-07-05T22:47:49.373Z,18.60
2018-07-05T22:51:04.014Z,18.50
2018-07-05T22:54:18.626Z,18.40
2018-07-05T23:00:41.735Z,18.20
2018-07-05T23:03:56.834Z,18.10
2018-07-05T23:07:11.617Z,18.10
2018-07-05T23:10:26.082Z,18.10
2018-07-05T23:13:40.714Z,18.10
2018-07-05T23:16:55.257Z,18.10
2018-07-05T23:20:09.738Z,18.00
2018-07-05T23:23:24.402Z,18.00
2018-07-05T23:26:38.849Z,18.00
2018-07-05T23:29:53.425Z,18.00
2018-07-05T23:33:07.853Z,18.00
2018-07-05T23:36:22.361Z,17.90
2018-07-05T23:39:36.974Z,17.90
2018-07-05T23:42:51.433Z,17.80
2018-07-05T23:46:07.246Z,17.80
2018-07-05T23:49:21.889Z,17.70
2018-07-05T23:52:36.401Z,17.70
2018-07-05T23:55:50.845Z,17.60
2018-07-05T23:59:05.437Z,17.60
